sensor_id;sensor_type;location;lat;lon;timestamp;pressure;altitude;pressure_sealevel;temperature;humidity
46724;BME280;32463;48.298;11.620;2023-12-20T00:00:06;96285.28;;;5.21;77.48
46724;BME280;32463;48.298;11.620;2023-12-20T00:02:33;96287.47;;;5.25;77.62
46724;BME280;32463;48.298;11.620;2023-12-20T00:05:00;96281.81;;;5.31;77.77
46724;BME280;32463;48.298;11.620;2023-12-20T00:07:26;96268.78;;;5.23;78.40
46724;BME280;32463;48.298;11.620;2023-12-20T00:09:53;96260.81;;;5.26;78.62
46724;BME280;32463;48.298;11.620;2023-12-20T00:12:19;96255.00;;;5.24;79.35
46724;BME280;32463;48.298;11.620;2023-12-20T00:14:46;96271.22;;;5.25;79.95
46724;BME280;32463;48.298;11.620;2023-12-20T00:17:13;96265.59;;;5.31;80.09
46724;BME280;32463;48.298;11.620;2023-12-20T00:19:41;96256.56;;;5.36;79.73
46724;BME280;32463;48.298;11.620;2023-12-20T00:22:08;96263.47;;;5.36;80.38
46724;BME280;32463;48.298;11.620;2023-12-20T00:24:34;96257.00;;;5.41;79.88
46724;BME280;32463;48.298;11.620;2023-12-20T00:27:01;96248.97;;;5.35;81.33
46724;BME280;32463;48.298;11.620;2023-12-20T00:29:28;96244.25;;;5.40;81.15
46724;BME280;32463;48.298;11.620;2023-12-20T00:31:55;96237.81;;;5.46;80.93
46724;BME280;32463;48.298;11.620;2023-12-20T00:34:21;96237.81;;;5.46;81.79
46724;BME280;32463;48.298;11.620;2023-12-20T00:36:48;96235.09;;;5.47;82.48
46724;BME280;32463;48.298;11.620;2023-12-20T00:39:14;96223.44;;;5.43;83.22
46724;BME280;32463;48.298;11.620;2023-12-20T00:41:40;96224.69;;;5.49;83.90
46724;BME280;32463;48.298;11.620;2023-12-20T00:44:07;96215.88;;;5.51;83.48
46724;BME280;32463;48.298;11.620;2023-12-20T00:46:33;96222.13;;;5.49;84.79
46724;BME280;32463;48.298;11.620;2023-12-20T00:49:00;96224.00;;;5.56;84.86
46724;BME280;32463;48.298;11.620;2023-12-20T00:51:26;96226.16;;;5.51;86.69
46724;BME280;32463;48.298;11.620;2023-12-20T00:53:53;96218.88;;;5.47;87.66
46724;BME280;32463;48.298;11.620;2023-12-20T00:56:21;96222.38;;;5.46;88.09
46724;BME280;32463;48.298;11.620;2023-12-20T00:58:47;96215.06;;;5.51;88.40
46724;BME280;32463;48.298;11.620;2023-12-20T01:01:14;96208.31;;;5.50;87.71
46724;BME280;32463;48.298;11.620;2023-12-20T01:03:40;96207.78;;;5.56;87.22
46724;BME280;32463;48.298;11.620;2023-12-20T01:06:06;96209.91;;;5.51;87.37
46724;BME280;32463;48.298;11.620;2023-12-20T01:08:33;96214.81;;;5.54;86.77
46724;BME280;32463;48.298;11.620;2023-12-20T01:11:00;96212.22;;;5.54;85.55
46724;BME280;32463;48.298;11.620;2023-12-20T01:13:27;96215.66;;;5.64;84.95
46724;BME280;32463;48.298;11.620;2023-12-20T01:15:53;96205.06;;;5.57;84.06
46724;BME280;32463;48.298;11.620;2023-12-20T01:18:20;96207.66;;;5.57;83.65
46724;BME280;32463;48.298;11.620;2023-12-20T01:20:47;96205.38;;;5.64;83.29
46724;BME280;32463;48.298;11.620;2023-12-20T01:23:13;96212.41;;;5.62;83.32
46724;BME280;32463;48.298;11.620;2023-12-20T01:25:40;96210.81;;;5.70;83.65
46724;BME280;32463;48.298;11.620;2023-12-20T01:28:06;96200.78;;;5.67;83.35
46724;BME280;32463;48.298;11.620;2023-12-20T01:30:33;96194.53;;;5.60;82.90
46724;BME280;32463;48.298;11.620;2023-12-20T01:33:00;96203.38;;;5.77;81.91
46724;BME280;32463;48.298;11.620;2023-12-20T01:35:27;96193.59;;;5.61;82.98
46724;BME280;32463;48.298;11.620;2023-12-20T01:37:53;96196.72;;;5.65;83.83
46724;BME280;32463;48.298;11.620;2023-12-20T01:40:22;96187.53;;;5.72;83.62
46724;BME280;32463;48.298;11.620;2023-12-20T01:43:06;96192.09;;;5.59;84.23
46724;BME280;32463;48.298;11.620;2023-12-20T01:45:33;96181.81;;;5.59;85.02
46724;BME280;32463;48.298;11.620;2023-12-20T01:47:59;96172.19;;;5.61;84.89
46724;BME280;32463;48.298;11.620;2023-12-20T01:50:28;96171.94;;;5.64;85.38
46724;BME280;32463;48.298;11.620;2023-12-20T01:52:56;96171.25;;;5.62;85.85
46724;BME280;32463;48.298;11.620;2023-12-20T01:55:25;96164.63;;;5.59;85.58
46724;BME280;32463;48.298;11.620;2023-12-20T01:57:51;96155.81;;;5.62;85.51
46724;BME280;32463;48.298;11.620;2023-12-20T02:00:19;96150.69;;;5.62;85.95
46724;BME280;32463;48.298;11.620;2023-12-20T02:02:48;96152.31;;;5.63;86.20
46724;BME280;32463;48.298;11.620;2023-12-20T02:05:16;96153.00;;;5.65;86.77
46724;BME280;32463;48.298;11.620;2023-12-20T02:07:43;96142.53;;;5.47;87.55
46724;BME280;32463;48.298;11.620;2023-12-20T02:10:10;96143.63;;;5.45;87.95
46724;BME280;32463;48.298;11.620;2023-12-20T02:12:36;96139.03;;;5.58;88.41
46724;BME280;32463;48.298;11.620;2023-12-20T02:15:04;96125.63;;;5.45;89.08
46724;BME280;32463;48.298;11.620;2023-12-20T02:17:31;96123.44;;;5.40;89.23
46724;BME280;32463;48.298;11.620;2023-12-20T02:19:58;96115.75;;;5.50;89.03
46724;BME280;32463;48.298;11.620;2023-12-20T02:22:24;96122.94;;;5.46;89.48
46724;BME280;32463;48.298;11.620;2023-12-20T02:24:51;96115.19;;;5.36;90.49
46724;BME280;32463;48.298;11.620;2023-12-20T02:27:18;96112.75;;;5.35;91.19
46724;BME280;32463;48.298;11.620;2023-12-20T02:29:47;96105.97;;;5.34;91.48
46724;BME280;32463;48.298;11.620;2023-12-20T02:32:13;96117.31;;;5.31;91.69
46724;BME280;32463;48.298;11.620;2023-12-20T02:34:40;96107.91;;;5.41;91.36
46724;BME280;32463;48.298;11.620;2023-12-20T02:37:06;96114.53;;;5.44;91.68
46724;BME280;32463;48.298;11.620;2023-12-20T02:39:33;96117.22;;;5.43;91.58
46724;BME280;32463;48.298;11.620;2023-12-20T02:41:59;96108.31;;;5.47;91.16
46724;BME280;32463;48.298;11.620;2023-12-20T02:44:26;96117.66;;;5.48;91.34
46724;BME280;32463;48.298;11.620;2023-12-20T02:46:52;96101.41;;;5.47;91.28
46724;BME280;32463;48.298;11.620;2023-12-20T02:49:18;96099.50;;;5.39;92.57
46724;BME280;32463;48.298;11.620;2023-12-20T02:51:45;96098.69;;;5.39;92.44
46724;BME280;32463;48.298;11.620;2023-12-20T02:54:12;96103.00;;;5.38;93.20
46724;BME280;32463;48.298;11.620;2023-12-20T02:56:38;96103.56;;;5.42;93.63
46724;BME280;32463;48.298;11.620;2023-12-20T02:59:04;96092.72;;;5.38;94.53
46724;BME280;32463;48.298;11.620;2023-12-20T03:01:33;96092.47;;;5.41;95.60
46724;BME280;32463;48.298;11.620;2023-12-20T03:04:01;96106.09;;;5.32;97.05
46724;BME280;32463;48.298;11.620;2023-12-20T03:06:27;96110.56;;;5.30;98.58
46724;BME280;32463;48.298;11.620;2023-12-20T03:08:54;96113.81;;;5.32;98.85
46724;BME280;32463;48.298;11.620;2023-12-20T03:11:20;96111.66;;;5.37;99.95
46724;BME280;32463;48.298;11.620;2023-12-20T03:13:47;96110.63;;;5.50;99.48
46724;BME280;32463;48.298;11.620;2023-12-20T03:16:13;96104.13;;;5.46;100.00
46724;BME280;32463;48.298;11.620;2023-12-20T03:18:41;96108.31;;;5.47;100.00
46724;BME280;32463;48.298;11.620;2023-12-20T03:21:07;96099.25;;;5.43;100.00
46724;BME280;32463;48.298;11.620;2023-12-20T03:23:34;96110.63;;;5.69;100.00
46724;BME280;32463;48.298;11.620;2023-12-20T03:26:02;96110.91;;;5.66;100.00
46724;BME280;32463;48.298;11.620;2023-12-20T03:28:29;96119.53;;;5.55;100.00
46724;BME280;32463;48.298;11.620;2023-12-20T03:30:56;96125.50;;;5.56;100.00
46724;BME280;32463;48.298;11.620;2023-12-20T03:33:22;96121.16;;;5.47;100.00
46724;BME280;32463;48.298;11.620;2023-12-20T03:35:49;96131.44;;;5.47;100.00
46724;BME280;32463;48.298;11.620;2023-12-20T03:38:16;96138.63;;;5.53;100.00
46724;BME280;32463;48.298;11.620;2023-12-20T03:40:43;96130.09;;;5.43;100.00
46724;BME280;32463;48.298;11.620;2023-12-20T03:43:10;96146.06;;;5.46;100.00
46724;BME280;32463;48.298;11.620;2023-12-20T03:45:36;96149.84;;;5.42;100.00
46724;BME280;32463;48.298;11.620;2023-12-20T03:48:04;96144.19;;;5.58;100.00
46724;BME280;32463;48.298;11.620;2023-12-20T03:50:31;96157.44;;;5.63;100.00
46724;BME280;32463;48.298;11.620;2023-12-20T03:52:58;96162.88;;;5.69;100.00
46724;BME280;32463;48.298;11.620;2023-12-20T03:55:25;96164.50;;;5.70;100.00
46724;BME280;32463;48.298;11.620;2023-12-20T03:57:52;96162.91;;;5.79;100.00
46724;BME280;32463;48.298;11.620;2023-12-20T04:00:19;96153.81;;;5.65;100.00
46724;BME280;32463;48.298;11.620;2023-12-20T04:02:45;96159.03;;;5.45;100.00
46724;BME280;32463;48.298;11.620;2023-12-20T04:05:12;96157.13;;;5.37;100.00
46724;BME280;32463;48.298;11.620;2023-12-20T04:07:39;96156.25;;;5.17;100.00
46724;BME280;32463;48.298;11.620;2023-12-20T04:10:06;96170.25;;;5.03;100.00
46724;BME280;32463;48.298;11.620;2023-12-20T04:12:34;96158.91;;;5.06;100.00
46724;BME280;32463;48.298;11.620;2023-12-20T04:15:01;96162.03;;;5.10;100.00
46724;BME280;32463;48.298;11.620;2023-12-20T04:17:28;96166.94;;;4.92;100.00
46724;BME280;32463;48.298;11.620;2023-12-20T04:19:55;96162.84;;;4.80;100.00
46724;BME280;32463;48.298;11.620;2023-12-20T04:22:22;96170.91;;;4.75;100.00
46724;BME280;32463;48.298;11.620;2023-12-20T04:24:49;96165.56;;;4.57;100.00
46724;BME280;32463;48.298;11.620;2023-12-20T04:27:15;96153.56;;;4.67;100.00
46724;BME280;32463;48.298;11.620;2023-12-20T04:29:42;96157.78;;;4.48;100.00
46724;BME280;32463;48.298;11.620;2023-12-20T04:32:08;96152.81;;;4.77;100.00
46724;BME280;32463;48.298;11.620;2023-12-20T04:34:35;96168.53;;;4.62;100.00
46724;BME280;32463;48.298;11.620;2023-12-20T04:37:01;96167.94;;;4.49;100.00
46724;BME280;32463;48.298;11.620;2023-12-20T04:39:28;96170.66;;;4.36;100.00
46724;BME280;32463;48.298;11.620;2023-12-20T04:41:55;96162.47;;;4.63;100.00
46724;BME280;32463;48.298;11.620;2023-12-20T04:44:21;96174.59;;;4.61;100.00
46724;BME280;32463;48.298;11.620;2023-12-20T04:46:48;96171.63;;;4.56;100.00
46724;BME280;32463;48.298;11.620;2023-12-20T04:49:15;96186.94;;;4.67;100.00
46724;BME280;32463;48.298;11.620;2023-12-20T04:51:41;96177.75;;;4.44;100.00
46724;BME280;32463;48.298;11.620;2023-12-20T04:54:08;96188.75;;;4.35;100.00
46724;BME280;32463;48.298;11.620;2023-12-20T04:56:35;96192.00;;;4.37;100.00
46724;BME280;32463;48.298;11.620;2023-12-20T04:59:04;96195.38;;;4.17;100.00
46724;BME280;32463;48.298;11.620;2023-12-20T05:01:30;96201.81;;;4.11;100.00
46724;BME280;32463;48.298;11.620;2023-12-20T05:03:57;96200.28;;;4.20;100.00
46724;BME280;32463;48.298;11.620;2023-12-20T05:06:23;96207.03;;;4.21;100.00
46724;BME280;32463;48.298;11.620;2023-12-20T05:08:50;96206.94;;;4.11;100.00
46724;BME280;32463;48.298;11.620;2023-12-20T05:11:16;96212.06;;;4.11;100.00
46724;BME280;32463;48.298;11.620;2023-12-20T05:13:43;96199.59;;;4.06;100.00
46724;BME280;32463;48.298;11.620;2023-12-20T05:16:09;96208.22;;;4.05;100.00
46724;BME280;32463;48.298;11.620;2023-12-20T05:18:36;96215.81;;;4.07;100.00
46724;BME280;32463;48.298;11.620;2023-12-20T05:21:02;96220.09;;;4.18;100.00
46724;BME280;32463;48.298;11.620;2023-12-20T05:23:29;96217.03;;;4.24;100.00
46724;BME280;32463;48.298;11.620;2023-12-20T05:25:55;96218.72;;;4.14;100.00
46724;BME280;32463;48.298;11.620;2023-12-20T05:28:22;96220.59;;;4.00;100.00
46724;BME280;32463;48.298;11.620;2023-12-20T05:30:49;96225.00;;;4.21;100.00
46724;BME280;32463;48.298;11.620;2023-12-20T05:33:15;96215.81;;;4.07;100.00
46724;BME280;32463;48.298;11.620;2023-12-20T05:35:42;96227.59;;;3.98;100.00
46724;BME280;32463;48.298;11.620;2023-12-20T05:38:09;96234.34;;;3.99;100.00
46724;BME280;32463;48.298;11.620;2023-12-20T05:40:35;96223.16;;;4.12;100.00
46724;BME280;32463;48.298;11.620;2023-12-20T05:43:02;96226.00;;;3.97;100.00
46724;BME280;32463;48.298;11.620;2023-12-20T05:45:28;96232.81;;;4.08;100.00
46724;BME280;32463;48.298;11.620;2023-12-20T05:47:55;96243.56;;;4.02;100.00
46724;BME280;32463;48.298;11.620;2023-12-20T05:50:22;96244.38;;;4.02;100.00
46724;BME280;32463;48.298;11.620;2023-12-20T05:52:50;96247.66;;;4.04;100.00
46724;BME280;32463;48.298;11.620;2023-12-20T05:55:16;96248.47;;;4.05;100.00
46724;BME280;32463;48.298;11.620;2023-12-20T05:57:43;96256.28;;;4.03;100.00
46724;BME280;32463;48.298;11.620;2023-12-20T06:00:10;96259.53;;;4.05;100.00
46724;BME280;32463;48.298;11.620;2023-12-20T06:02:36;96259.75;;;4.14;100.00
46724;BME280;32463;48.298;11.620;2023-12-20T06:05:04;96269.09;;;4.15;100.00
46724;BME280;32463;48.298;11.620;2023-12-20T06:07:31;96271.88;;;4.12;100.00
46724;BME280;32463;48.298;11.620;2023-12-20T06:09:58;96270.72;;;4.16;100.00
46724;BME280;32463;48.298;11.620;2023-12-20T06:12:24;96268.41;;;4.01;100.00
46724;BME280;32463;48.298;11.620;2023-12-20T06:14:52;96269.78;;;4.05;100.00
46724;BME280;32463;48.298;11.620;2023-12-20T06:17:19;96273.88;;;4.08;100.00
46724;BME280;32463;48.298;11.620;2023-12-20T06:19:45;96276.22;;;4.00;100.00
46724;BME280;32463;48.298;11.620;2023-12-20T06:22:14;96280.28;;;4.02;100.00
46724;BME280;32463;48.298;11.620;2023-12-20T06:24:40;96283.22;;;3.98;100.00
46724;BME280;32463;48.298;11.620;2023-12-20T06:27:06;96283.06;;;4.11;100.00
46724;BME280;32463;48.298;11.620;2023-12-20T06:29:33;96287.75;;;4.05;100.00
46724;BME280;32463;48.298;11.620;2023-12-20T06:32:01;96296.88;;;3.87;100.00
46724;BME280;32463;48.298;11.620;2023-12-20T06:34:28;96291.41;;;3.81;100.00
46724;BME280;32463;48.298;11.620;2023-12-20T06:36:55;96290.94;;;3.87;100.00
46724;BME280;32463;48.298;11.620;2023-12-20T06:39:21;96299.22;;;3.90;100.00
46724;BME280;32463;48.298;11.620;2023-12-20T06:41:48;96297.59;;;3.78;100.00
46724;BME280;32463;48.298;11.620;2023-12-20T06:44:14;96300.38;;;3.75;100.00
46724;BME280;32463;48.298;11.620;2023-12-20T06:46:41;96302.94;;;3.75;100.00
46724;BME280;32463;48.298;11.620;2023-12-20T06:49:07;96305.03;;;3.70;100.00
46724;BME280;32463;48.298;11.620;2023-12-20T06:51:33;96289.88;;;3.67;100.00
46724;BME280;32463;48.298;11.620;2023-12-20T06:54:00;96306.34;;;3.64;100.00
46724;BME280;32463;48.298;11.620;2023-12-20T06:56:27;96301.91;;;3.55;100.00
46724;BME280;32463;48.298;11.620;2023-12-20T06:58:54;96313.56;;;3.59;100.00
46724;BME280;32463;48.298;11.620;2023-12-20T07:01:20;96324.97;;;3.55;100.00
46724;BME280;32463;48.298;11.620;2023-12-20T07:03:48;96333.03;;;3.62;100.00
46724;BME280;32463;48.298;11.620;2023-12-20T07:06:14;96341.88;;;3.58;100.00
46724;BME280;32463;48.298;11.620;2023-12-20T07:08:42;96345.13;;;3.60;100.00
46724;BME280;32463;48.298;11.620;2023-12-20T07:11:09;96348.41;;;3.62;100.00
46724;BME280;32463;48.298;11.620;2023-12-20T07:13:35;96348.50;;;3.60;100.00
46724;BME280;32463;48.298;11.620;2023-12-20T07:16:02;96360.75;;;3.57;100.00
46724;BME280;32463;48.298;11.620;2023-12-20T07:18:29;96360.84;;;3.55;100.00
46724;BME280;32463;48.298;11.620;2023-12-20T07:20:55;96367.50;;;3.58;100.00
46724;BME280;32463;48.298;11.620;2023-12-20T07:23:22;96361.31;;;3.49;100.00
46724;BME280;32463;48.298;11.620;2023-12-20T07:25:48;96359.78;;;3.47;100.00
46724;BME280;32463;48.298;11.620;2023-12-20T07:28:15;96362.38;;;3.58;100.00
46724;BME280;32463;48.298;11.620;2023-12-20T07:30:41;96360.53;;;3.60;100.00
46724;BME280;32463;48.298;11.620;2023-12-20T07:33:08;96363.31;;;3.57;100.00
46724;BME280;32463;48.298;11.620;2023-12-20T07:35:34;96363.66;;;3.63;100.00
46724;BME280;32463;48.298;11.620;2023-12-20T07:38:01;96370.53;;;3.63;100.00
46724;BME280;32463;48.298;11.620;2023-12-20T07:40:27;96375.66;;;3.63;100.00
46724;BME280;32463;48.298;11.620;2023-12-20T07:42:54;96368.69;;;3.65;100.00
46724;BME280;32463;48.298;11.620;2023-12-20T07:45:20;96378.69;;;3.79;100.00
46724;BME280;32463;48.298;11.620;2023-12-20T07:47:47;96369.59;;;3.75;100.00
46724;BME280;32463;48.298;11.620;2023-12-20T07:50:14;96376.81;;;3.70;100.00
46724;BME280;32463;48.298;11.620;2023-12-20T07:52:41;96383.34;;;3.74;100.00
46724;BME280;32463;48.298;11.620;2023-12-20T07:55:07;96376.13;;;3.68;100.00
46724;BME280;32463;48.298;11.620;2023-12-20T07:57:34;96381.25;;;3.79;100.00
46724;BME280;32463;48.298;11.620;2023-12-20T08:00:00;96375.31;;;3.79;100.00
46724;BME280;32463;48.298;11.620;2023-12-20T08:02:28;96395.72;;;3.80;100.00
46724;BME280;32463;48.298;11.620;2023-12-20T08:04:55;96387.22;;;3.80;100.00
46724;BME280;32463;48.298;11.620;2023-12-20T08:07:21;96390.25;;;3.85;100.00
46724;BME280;32463;48.298;11.620;2023-12-20T08:09:48;96399.69;;;3.84;100.00
46724;BME280;32463;48.298;11.620;2023-12-20T08:12:14;96396.19;;;3.85;100.00
46724;BME280;32463;48.298;11.620;2023-12-20T08:14:42;96400.88;;;3.91;100.00
46724;BME280;32463;48.298;11.620;2023-12-20T08:17:08;96397.81;;;3.75;100.00
46724;BME280;32463;48.298;11.620;2023-12-20T08:19:35;96403.41;;;3.80;100.00
46724;BME280;32463;48.298;11.620;2023-12-20T08:22:01;96405.28;;;3.78;100.00
46724;BME280;32463;48.298;11.620;2023-12-20T08:24:28;96408.53;;;3.80;100.00
46724;BME280;32463;48.298;11.620;2023-12-20T08:26:55;96407.13;;;3.76;100.00
46724;BME280;32463;48.298;11.620;2023-12-20T08:29:22;96407.59;;;3.70;100.00
46724;BME280;32463;48.298;11.620;2023-12-20T08:31:52;96407.13;;;3.76;100.00
46724;BME280;32463;48.298;11.620;2023-12-20T08:34:19;96414.13;;;3.74;100.00
46724;BME280;32463;48.298;11.620;2023-12-20T08:36:46;96412.59;;;3.71;100.00
46724;BME280;32463;48.298;11.620;2023-12-20T08:39:12;96404.09;;;3.71;100.00
46724;BME280;32463;48.298;11.620;2023-12-20T08:41:38;96411.81;;;3.82;100.00
46724;BME280;32463;48.298;11.620;2023-12-20T08:44:05;96410.63;;;3.75;100.00
46724;BME280;32463;48.298;11.620;2023-12-20T08:46:31;96413.19;;;3.75;100.00
46724;BME280;32463;48.298;11.620;2023-12-20T08:48:58;96415.31;;;3.81;100.00
46724;BME280;32463;48.298;11.620;2023-12-20T08:51:25;96416.94;;;3.93;100.00
46724;BME280;32463;48.298;11.620;2023-12-20T08:53:52;96410.91;;;3.94;100.00
46724;BME280;32463;48.298;11.620;2023-12-20T08:56:18;96412.03;;;4.01;100.00
46724;BME280;32463;48.298;11.620;2023-12-20T08:58:47;96406.69;;;4.04;100.00
46724;BME280;32463;48.298;11.620;2023-12-20T09:01:14;96405.28;;;4.00;100.00
46724;BME280;32463;48.298;11.620;2023-12-20T09:03:41;96403.19;;;4.05;100.00
46724;BME280;32463;48.298;11.620;2023-12-20T09:06:07;96401.31;;;4.07;100.00
46724;BME280;32463;48.298;11.620;2023-12-20T09:08:34;96391.28;;;4.27;100.00
46724;BME280;32463;48.298;11.620;2023-12-20T09:11:00;96404.78;;;4.29;100.00
46724;BME280;32463;48.298;11.620;2023-12-20T09:13:26;96402.25;;;4.18;100.00
46724;BME280;32463;48.298;11.620;2023-12-20T09:15:56;96402.72;;;4.12;100.00
46724;BME280;32463;48.298;11.620;2023-12-20T09:18:23;96387.31;;;4.12;100.00
46724;BME280;32463;48.298;11.620;2023-12-20T09:20:50;96401.78;;;4.13;100.00
46724;BME280;32463;48.298;11.620;2023-12-20T09:23:17;96417.41;;;4.21;100.00
46724;BME280;32463;48.298;11.620;2023-12-20T09:25:44;96414.97;;;4.08;100.00
46724;BME280;32463;48.298;11.620;2023-12-20T09:28:10;96421.38;;;4.14;100.00
46724;BME280;32463;48.298;11.620;2023-12-20T09:30:37;96412.28;;;4.10;100.00
46724;BME280;32463;48.298;11.620;2023-12-20T09:33:05;96422.19;;;4.14;100.00
46724;BME280;32463;48.298;11.620;2023-12-20T09:35:33;96411.47;;;4.20;100.00
46724;BME280;32463;48.298;11.620;2023-12-20T09:37:59;96417.41;;;4.10;100.00
46724;BME280;32463;48.298;11.620;2023-12-20T09:40:26;96419.06;;;4.22;100.00
46724;BME280;32463;48.298;11.620;2023-12-20T09:43:19;96410.19;;;4.15;100.00
46724;BME280;32463;48.298;11.620;2023-12-20T09:45:47;96417.41;;;4.21;100.00
46724;BME280;32463;48.298;11.620;2023-12-20T09:48:17;96403.31;;;4.15;100.00
46724;BME280;32463;48.298;11.620;2023-12-20T09:50:44;96411.44;;;4.31;100.00
46724;BME280;32463;48.298;11.620;2023-12-20T09:53:15;96403.63;;;4.33;100.00
46724;BME280;32463;48.298;11.620;2023-12-20T09:55:42;96401.41;;;4.28;100.00
46724;BME280;32463;48.298;11.620;2023-12-20T09:58:08;96398.50;;;4.44;100.00
46724;BME280;32463;48.298;11.620;2023-12-20T10:00:35;96400.81;;;4.58;100.00
46724;BME280;32463;48.298;11.620;2023-12-20T10:03:01;96384.09;;;4.64;100.00
46724;BME280;32463;48.298;11.620;2023-12-20T10:05:33;96396.81;;;4.65;100.00
46724;BME280;32463;48.298;11.620;2023-12-20T10:08:00;96394.13;;;4.67;100.00
46724;BME280;32463;48.298;11.620;2023-12-20T10:10:28;96386.97;;;4.82;100.00
46724;BME280;32463;48.298;11.620;2023-12-20T10:13:09;96381.06;;;4.91;100.00
46724;BME280;32463;48.298;11.620;2023-12-20T10:15:36;96380.41;;;4.89;100.00
46724;BME280;32463;48.298;11.620;2023-12-20T10:18:04;96379.03;;;4.85;100.00
46724;BME280;32463;48.298;11.620;2023-12-20T10:20:31;96381.75;;;5.04;100.00
46724;BME280;32463;48.298;11.620;2023-12-20T10:22:58;96389.56;;;5.02;100.00
46724;BME280;32463;48.298;11.620;2023-12-20T10:25:25;96386.41;;;4.99;100.00
46724;BME280;32463;48.298;11.620;2023-12-20T10:30:37;96395.13;;;4.87;100.00
46724;BME280;32463;48.298;11.620;2023-12-20T10:33:09;96389.25;;;4.96;100.00
46724;BME280;32463;48.298;11.620;2023-12-20T10:35:36;96377.91;;;4.98;100.00
46724;BME280;32463;48.298;11.620;2023-12-20T10:38:04;96381.75;;;5.04;100.00
46724;BME280;32463;48.298;11.620;2023-12-20T10:40:34;96376.16;;;4.99;100.00
46724;BME280;32463;48.298;11.620;2023-12-20T10:43:02;96375.22;;;5.00;100.00
46724;BME280;32463;48.298;11.620;2023-12-20T10:45:28;96369.75;;;4.93;100.00
46724;BME280;32463;48.298;11.620;2023-12-20T10:47:56;96368.44;;;4.99;100.00
46724;BME280;32463;48.298;11.620;2023-12-20T10:50:22;96368.34;;;4.89;100.00
46724;BME280;32463;48.298;11.620;2023-12-20T10:52:50;96369.44;;;4.87;100.00
46724;BME280;32463;48.298;11.620;2023-12-20T10:55:21;96373.44;;;4.80;100.00
46724;BME280;32463;48.298;11.620;2023-12-20T10:57:49;96366.56;;;5.01;100.00
46724;BME280;32463;48.298;11.620;2023-12-20T11:00:20;96358.91;;;4.90;100.00
46724;BME280;32463;48.298;11.620;2023-12-20T11:02:49;96362.28;;;4.90;100.00
46724;BME280;32463;48.298;11.620;2023-12-20T11:05:29;96360.03;;;4.97;100.00
46724;BME280;32463;48.298;11.620;2023-12-20T11:08:25;96354.91;;;4.97;100.00
46724;BME280;32463;48.298;11.620;2023-12-20T11:13:48;96356.94;;;5.14;100.00
46724;BME280;32463;48.298;11.620;2023-12-20T11:16:15;96351.66;;;5.36;100.00
46724;BME280;32463;48.298;11.620;2023-12-20T11:18:42;96352.16;;;5.30;100.00
46724;BME280;32463;48.298;11.620;2023-12-20T11:21:11;96349.28;;;5.45;100.00
46724;BME280;32463;48.298;11.620;2023-12-20T11:23:42;96344.50;;;5.61;100.00
46724;BME280;32463;48.298;11.620;2023-12-20T11:26:08;96327.00;;;5.55;100.00
46724;BME280;32463;48.298;11.620;2023-12-20T11:28:35;96323.34;;;5.48;100.00
46724;BME280;32463;48.298;11.620;2023-12-20T11:31:02;96337.91;;;5.68;100.00
46724;BME280;32463;48.298;11.620;2023-12-20T11:33:36;96331.06;;;5.57;100.00
46724;BME280;32463;48.298;11.620;2023-12-20T11:36:12;96325.22;;;5.76;100.00
46724;BME280;32463;48.298;11.620;2023-12-20T11:38:54;96327.09;;;5.74;100.00
46724;BME280;32463;48.298;11.620;2023-12-20T11:41:25;96319.66;;;5.71;100.00
46724;BME280;32463;48.298;11.620;2023-12-20T11:43:55;96311.31;;;5.58;100.00
46724;BME280;32463;48.298;11.620;2023-12-20T11:46:22;96316.84;;;5.53;100.00
46724;BME280;32463;48.298;11.620;2023-12-20T11:48:49;96319.03;;;5.58;100.00
46724;BME280;32463;48.298;11.620;2023-12-20T11:51:15;96313.72;;;5.80;100.00
46724;BME280;32463;48.298;11.620;2023-12-20T11:53:42;96322.22;;;5.71;100.00
46724;BME280;32463;48.298;11.620;2023-12-20T11:56:09;96329.13;;;5.70;100.00
46724;BME280;32463;48.298;11.620;2023-12-20T11:58:38;96324.66;;;5.42;100.00
46724;BME280;32463;48.298;11.620;2023-12-20T12:01:04;96333.03;;;5.02;100.00
46724;BME280;32463;48.298;11.620;2023-12-20T12:03:32;96330.28;;;4.94;100.00
46724;BME280;32463;48.298;11.620;2023-12-20T12:05:59;96330.72;;;4.79;100.00
46724;BME280;32463;48.298;11.620;2023-12-20T12:08:26;96343.78;;;4.76;100.00
46724;BME280;32463;48.298;11.620;2023-12-20T12:10:52;96340.97;;;4.79;100.00
46724;BME280;32463;48.298;11.620;2023-12-20T12:13:19;96334.53;;;4.84;100.00
46724;BME280;32463;48.298;11.620;2023-12-20T12:15:45;96322.31;;;4.77;100.00
46724;BME280;32463;48.298;11.620;2023-12-20T12:18:15;96330.03;;;4.65;100.00
46724;BME280;32463;48.298;11.620;2023-12-20T12:20:42;96323.34;;;4.42;100.00
46724;BME280;32463;48.298;11.620;2023-12-20T12:23:09;96325.38;;;4.59;100.00
46724;BME280;32463;48.298;11.620;2023-12-20T12:25:36;96318.66;;;4.58;100.00
46724;BME280;32463;48.298;11.620;2023-12-20T12:28:03;96321.16;;;4.69;100.00
46724;BME280;32463;48.298;11.620;2023-12-20T12:30:30;96312.75;;;4.67;100.00
46724;BME280;32463;48.298;11.620;2023-12-20T12:32:57;96309.34;;;4.78;100.00
46724;BME280;32463;48.298;11.620;2023-12-20T12:35:25;96302.22;;;4.82;100.00
46724;BME280;32463;48.298;11.620;2023-12-20T12:37:51;96310.09;;;4.90;100.00
46724;BME280;32463;48.298;11.620;2023-12-20T12:40:18;96292.09;;;4.90;100.00
46724;BME280;32463;48.298;11.620;2023-12-20T12:42:45;96291.38;;;4.99;100.00
46724;BME280;32463;48.298;11.620;2023-12-20T12:45:12;96293.50;;;4.94;100.00
46724;BME280;32463;48.298;11.620;2023-12-20T12:47:39;96299.53;;;5.04;100.00
46724;BME280;32463;48.298;11.620;2023-12-20T12:50:05;96286.44;;;5.07;100.00
46724;BME280;32463;48.298;11.620;2023-12-20T12:52:32;96292.75;;;5.03;100.00
46724;BME280;32463;48.298;11.620;2023-12-20T12:55:00;96300.09;;;5.07;100.00
46724;BME280;32463;48.298;11.620;2023-12-20T12:57:26;96308.91;;;4.94;100.00